createdAt,value
2019-05-09T00:02:15.023Z,10.50
2019-05-09T00:04:56.124Z,10.51
2019-05-09T00:07:33.970Z,10.53
2019-05-09T00:10:11.529Z,10.53
2019-05-09T00:12:46.001Z,10.53
2019-05-09T00:15:20.829Z,10.52
2019-05-09T00:18:03.678Z,10.46
2019-05-09T00:20:43.698Z,10.45
2019-05-09T00:23:26.105Z,10.48
2019-05-09T00:26:04.125Z,10.44
2019-05-09T00:28:44.196Z,10.43
2019-05-09T00:31:25.717Z,10.46
2019-05-09T00:34:00.029Z,10.42
2019-05-09T00:36:33.937Z,10.32
2019-05-09T00:39:06.191Z,10.27
2019-05-09T00:41:37.793Z,10.31
2019-05-09T00:44:10.102Z,10.28
2019-05-09T00:46:43.141Z,10.27
2019-05-09T00:49:16.512Z,10.31
2019-05-09T00:51:47.256Z,10.27
2019-05-09T00:54:17.815Z,10.30
2019-05-09T00:56:48.587Z,10.31
2019-05-09T00:59:33.169Z,10.31
2019-05-09T01:02:04.086Z,10.28
2019-05-09T01:04:34.747Z,10.28
2019-05-09T01:07:05.575Z,10.24
2019-05-09T01:09:36.066Z,10.23
2019-05-09T01:12:06.787Z,10.21
2019-05-09T01:14:37.389Z,10.17
2019-05-09T01:17:08.023Z,10.16
2019-05-09T01:19:38.604Z,10.10
2019-05-09T01:22:13.315Z,10.05
2019-05-09T01:24:45.092Z,10.15
2019-05-09T01:27:15.661Z,10.21
2019-05-09T01:29:48.207Z,10.27
2019-05-09T01:32:36.400Z,10.22
2019-05-09T01:35:07.015Z,10.28
2019-05-09T01:37:37.664Z,10.13
2019-05-09T01:40:08.355Z,10.17
2019-05-09T01:42:43.087Z,10.10
2019-05-09T01:45:14.199Z,10.19
2019-05-09T01:47:44.889Z,10.11
2019-05-09T01:50:19.629Z,10.20
2019-05-09T01:52:50.258Z,10.21
2019-05-09T01:55:23.496Z,10.24
2019-05-09T01:57:54.190Z,10.12
2019-05-09T02:00:25.066Z,10.08
2019-05-09T02:02:56.821Z,9.99
2019-05-09T02:05:43.493Z,9.99
2019-05-09T02:08:14.384Z,10.00
2019-05-09T02:10:45.096Z,10.04
2019-05-09T02:13:19.163Z,10.06
2019-05-09T02:16:03.670Z,9.96
2019-05-09T02:18:38.312Z,10.00
2019-05-09T02:21:11.483Z,9.97
2019-05-09T02:23:43.163Z,9.87
2019-05-09T02:26:15.551Z,9.84
2019-05-09T02:28:46.119Z,9.73
2019-05-09T02:31:16.770Z,9.65
2019-05-09T02:33:54.656Z,9.48
2019-05-09T02:36:25.315Z,9.52
2019-05-09T02:39:09.182Z,9.43
2019-05-09T02:41:58.928Z,9.35
2019-05-09T02:44:12.418Z,9.45
2019-05-09T02:46:53.655Z,9.36
2019-05-09T02:49:24.243Z,9.34
2019-05-09T02:52:12.012Z,9.33
2019-05-09T02:54:42.669Z,9.28
2019-05-09T02:57:13.293Z,9.20
2019-05-09T03:00:03.845Z,9.20
2019-05-09T03:02:43.289Z,9.29
2019-05-09T03:05:14.106Z,9.30
2019-05-09T03:07:50.721Z,9.43
2019-05-09T03:10:22.423Z,9.31
2019-05-09T03:12:53.126Z,9.14
2019-05-09T03:15:31.061Z,9.24
2019-05-09T03:18:01.876Z,9.19
2019-05-09T03:20:34.156Z,9.19
2019-05-09T03:23:04.684Z,9.18
2019-05-09T03:25:40.530Z,9.13
2019-05-09T03:28:28.684Z,9.10
2019-05-09T03:31:10.024Z,9.10
2019-05-09T03:33:41.118Z,9.11
2019-05-09T03:36:11.832Z,9.17
2019-05-09T03:38:44.386Z,9.18
2019-05-09T03:41:19.850Z,9.16
2019-05-09T03:44:20.573Z,9.24
2019-05-09T03:47:13.173Z,9.19
2019-05-09T03:49:43.776Z,9.19
2019-05-09T03:52:17.675Z,8.91
2019-05-09T03:54:53.574Z,8.93
2019-05-09T03:57:28.909Z,8.89
2019-05-09T03:59:59.507Z,8.92
2019-05-09T04:02:30.170Z,8.91
2019-05-09T04:05:00.760Z,8.84
2019-05-09T04:07:32.422Z,8.87
2019-05-09T04:10:07.830Z,8.78
2019-05-09T04:12:52.844Z,8.80
2019-05-09T04:15:10.856Z,8.81
2019-05-09T04:17:44.033Z,8.77
2019-05-09T04:20:14.894Z,8.74
2019-05-09T04:22:59.309Z,8.69
2019-05-09T04:25:31.956Z,8.81
2019-05-09T04:28:03.681Z,8.77
2019-05-09T04:30:34.360Z,8.71
2019-05-09T04:33:09.731Z,8.68
2019-05-09T04:35:49.203Z,8.70
2019-05-09T04:38:24.793Z,8.62
2019-05-09T04:40:55.566Z,8.74
2019-05-09T04:43:35.544Z,8.74
2019-05-09T04:46:01.288Z,8.71
2019-05-09T04:48:37.364Z,8.54
2019-05-09T04:51:15.433Z,8.55
2019-05-09T04:53:47.966Z,8.61
2019-05-09T04:56:19.950Z,8.67
2019-05-09T04:58:58.176Z,8.70
2019-05-09T05:01:38.759Z,8.56
2019-05-09T05:04:08.448Z,8.82
2019-05-09T05:06:40.590Z,8.89
2019-05-09T05:09:11.364Z,8.91
2019-05-09T05:11:42.061Z,8.97
2019-05-09T05:14:22.930Z,8.99
2019-05-09T05:17:07.687Z,9.04
2019-05-09T05:19:35.544Z,9.07
2019-05-09T05:22:13.540Z,9.14
2019-05-09T05:24:48.770Z,9.27
2019-05-09T05:27:19.098Z,9.41
2019-05-09T05:29:49.758Z,9.53
2019-05-09T05:32:32.160Z,9.60
2019-05-09T05:35:04.455Z,9.68
2019-05-09T05:37:35.028Z,9.66
2019-05-09T05:40:07.806Z,9.59
2019-05-09T05:42:44.354Z,9.66
2019-05-09T05:45:18.272Z,9.66
2019-05-09T05:47:57.719Z,9.75
2019-05-09T05:50:28.431Z,9.74
2019-05-09T05:52:59.175Z,9.76
2019-05-09T05:55:29.781Z,9.83
2019-05-09T05:58:08.785Z,9.84
2019-05-09T06:00:43.560Z,9.92
2019-05-09T06:03:17.805Z,9.97
2019-05-09T06:05:58.226Z,10.10
2019-05-09T06:08:28.319Z,10.06
2019-05-09T06:10:59.886Z,10.17
2019-05-09T06:13:34.907Z,10.25
2019-05-09T06:16:08.564Z,10.19
2019-05-09T06:18:39.385Z,10.14
2019-05-09T06:21:10.209Z,10.19
2019-05-09T06:23:48.320Z,10.23
2019-05-09T06:26:21.021Z,10.39
2019-05-09T06:28:57.677Z,10.40
2019-05-09T06:31:29.656Z,10.42
2019-05-09T06:34:15.548Z,10.41
2019-05-09T06:36:48.642Z,10.60
2019-05-09T06:39:25.575Z,10.71
2019-05-09T06:42:10.146Z,10.67
2019-05-09T06:44:49.374Z,10.68
2019-05-09T06:47:22.608Z,10.94
2019-05-09T06:49:57.439Z,10.94
2019-05-09T06:52:28.330Z,11.04
2019-05-09T06:54:59.112Z,11.18
2019-05-09T06:57:29.633Z,11.29
2019-05-09T07:00:00.275Z,11.40
2019-05-09T07:02:32.582Z,11.29
2019-05-09T07:05:08.387Z,11.26
2019-05-09T07:07:57.502Z,11.34
2019-05-09T07:10:28.426Z,11.43
2019-05-09T07:12:59.939Z,11.46
2019-05-09T07:15:30.682Z,11.56
2019-05-09T07:18:01.268Z,11.60
2019-05-09T07:20:33.993Z,11.56
2019-05-09T07:23:04.664Z,11.60
2019-05-09T07:25:44.927Z,11.74
2019-05-09T07:28:17.988Z,11.83
2019-05-09T07:30:53.380Z,11.83
2019-05-09T07:33:28.715Z,11.82
2019-05-09T07:35:59.304Z,11.87
2019-05-09T07:38:32.638Z,11.84
2019-05-09T07:41:03.309Z,11.71
2019-05-09T07:43:33.964Z,11.68
2019-05-09T07:46:21.743Z,11.86
2019-05-09T07:49:03.257Z,11.89
2019-05-09T07:51:33.982Z,12.01
2019-05-09T07:54:21.253Z,12.06
2019-05-09T07:56:38.014Z,12.04
2019-05-09T07:59:08.644Z,12.04
2019-05-09T08:01:39.231Z,11.95
2019-05-09T08:04:09.783Z,11.98
2019-05-09T08:06:40.510Z,12.10
2019-05-09T08:09:11.178Z,12.07
2019-05-09T08:11:41.826Z,12.12
2019-05-09T08:14:12.440Z,12.33
2019-05-09T08:16:43.101Z,12.53
2019-05-09T08:19:13.797Z,12.67
2019-05-09T08:21:44.342Z,12.70
2019-05-09T08:24:14.969Z,12.75
2019-05-09T08:26:47.661Z,12.70
2019-05-09T08:29:20.053Z,12.70
2019-05-09T08:31:50.469Z,12.71
2019-05-09T08:34:21.038Z,12.56
2019-05-09T08:36:51.736Z,12.72
2019-05-09T08:39:22.400Z,12.85
2019-05-09T08:41:54.044Z,12.90
2019-05-09T08:44:24.581Z,12.83
2019-05-09T08:46:57.281Z,12.89
2019-05-09T08:49:37.385Z,13.04
2019-05-09T08:52:15.782Z,12.90
2019-05-09T08:54:45.406Z,12.94
2019-05-09T08:57:18.257Z,12.98
2019-05-09T09:00:13.343Z,12.99
2019-05-09T09:02:45.022Z,13.01
2019-05-09T09:05:18.449Z,13.12
2019-05-09T09:07:51.246Z,13.08
2019-05-09T09:10:21.921Z,13.09
2019-05-09T09:12:52.517Z,13.14
2019-05-09T09:15:23.089Z,13.36
2019-05-09T09:17:53.660Z,13.42
2019-05-09T09:20:24.283Z,13.43
2019-05-09T09:22:54.923Z,13.54
2019-05-09T09:25:25.480Z,13.51
2019-05-09T09:27:58.246Z,13.57
2019-05-09T09:30:29.427Z,13.56
2019-05-09T09:33:00.307Z,13.53
2019-05-09T09:35:30.912Z,13.43
2019-05-09T09:38:01.608Z,13.41
2019-05-09T09:40:53.281Z,13.38
2019-05-09T09:43:23.876Z,13.45
2019-05-09T09:46:10.919Z,13.55
2019-05-09T09:48:38.944Z,13.61
2019-05-09T09:51:09.565Z,13.68
2019-05-09T09:53:40.357Z,13.73
2019-05-09T09:56:12.030Z,13.79
2019-05-09T09:58:44.328Z,13.89
2019-05-09T10:01:18.088Z,13.83
2019-05-09T10:03:50.575Z,13.89
2019-05-09T10:06:21.245Z,13.93
2019-05-09T10:08:51.826Z,13.86
2019-05-09T10:11:23.417Z,13.88
2019-05-09T10:13:54.005Z,13.95
2019-05-09T10:16:30.022Z,14.01
2019-05-09T10:19:08.298Z,14.06
2019-05-09T10:21:43.627Z,14.09
2019-05-09T10:24:17.355Z,14.18
2019-05-09T10:27:08.643Z,14.23
2019-05-09T10:29:39.742Z,14.24
2019-05-09T10:32:18.446Z,14.27
2019-05-09T10:35:08.951Z,14.34
2019-05-09T10:37:44.606Z,14.39
2019-05-09T10:40:23.552Z,14.32
2019-05-09T10:42:58.478Z,14.34
2019-05-09T10:45:39.934Z,14.32
2019-05-09T10:48:08.325Z,14.39
2019-05-09T10:50:44.694Z,14.47
2019-05-09T10:53:13.358Z,14.55
2019-05-09T10:55:45.008Z,14.37
2019-05-09T10:58:20.204Z,14.22
2019-05-09T11:00:58.746Z,14.32
2019-05-09T11:03:29.124Z,14.32
2019-05-09T11:06:05.250Z,14.32
2019-05-09T11:08:38.094Z,14.34
2019-05-09T11:11:09.454Z,14.46
2019-05-09T11:13:42.276Z,14.51
2019-05-09T11:16:12.981Z,14.55
2019-05-09T11:18:43.642Z,14.47
2019-05-09T11:21:14.358Z,14.45
2019-05-09T11:24:03.224Z,14.37
2019-05-09T11:26:33.938Z,14.39
2019-05-09T11:29:19.939Z,14.27
2019-05-09T11:31:50.524Z,14.23
2019-05-09T11:34:26.976Z,14.15
2019-05-09T11:36:58.039Z,14.14
2019-05-09T11:41:02.130Z,14.05
2019-05-09T11:42:02.232Z,14.09
2019-05-09T11:44:32.870Z,14.01
2019-05-09T11:47:04.477Z,14.02
2019-05-09T11:49:48.135Z,13.94
2019-05-09T11:52:19.588Z,13.90
2019-05-09T11:54:50.172Z,13.98
2019-05-09T11:57:20.835Z,13.87
2019-05-09T11:59:53.521Z,13.93
2019-05-09T12:02:25.173Z,13.91
2019-05-09T12:04:56.840Z,13.92
2019-05-09T12:07:28.849Z,13.91
2019-05-09T12:09:59.580Z,13.90
2019-05-09T12:12:30.186Z,13.89
2019-05-09T12:15:00.866Z,14.03
2019-05-09T12:17:57.880Z,14.22
2019-05-09T12:20:27.684Z,14.53
2019-05-09T12:22:59.434Z,14.80
2019-05-09T12:25:30.120Z,15.06
2019-05-09T12:28:02.819Z,15.14
2019-05-09T12:30:38.117Z,14.93
2019-05-09T12:33:11.983Z,14.93
2019-05-09T12:35:42.575Z,14.91
2019-05-09T12:38:13.143Z,14.95
2019-05-09T12:40:48.313Z,14.99
2019-05-09T12:43:18.903Z,15.04
2019-05-09T12:45:50.557Z,15.11
2019-05-09T12:48:21.370Z,15.10
2019-05-09T12:50:58.554Z,15.16
2019-05-09T12:53:32.655Z,15.20
2019-05-09T12:56:03.536Z,15.34
2019-05-09T12:58:34.251Z,15.40
2019-05-09T13:01:07.529Z,15.47
2019-05-09T13:03:38.458Z,15.44
2019-05-09T13:06:09.376Z,15.37
2019-05-09T13:08:40.036Z,15.36
2019-05-09T13:11:10.706Z,15.36
2019-05-09T13:13:41.678Z,15.32
2019-05-09T13:16:43.405Z,15.33
2019-05-09T13:19:06.753Z,15.28
2019-05-09T13:21:38.908Z,15.34
2019-05-09T13:24:09.751Z,15.25
2019-05-09T13:26:42.824Z,15.18
2019-05-09T13:29:38.097Z,15.24
2019-05-09T13:32:08.744Z,15.15
2019-05-09T13:34:52.842Z,15.18
2019-05-09T13:37:24.414Z,15.13
2019-05-09T13:40:02.907Z,15.08
2019-05-09T13:42:39.462Z,15.11
2019-05-09T13:45:20.039Z,15.11
2019-05-09T13:47:51.562Z,15.13
2019-05-09T13:50:32.077Z,15.17
2019-05-09T13:53:02.738Z,15.27
2019-05-09T13:55:33.329Z,15.38
2019-05-09T13:58:10.877Z,15.49
2019-05-09T14:00:55.760Z,15.47
2019-05-09T14:03:14.870Z,15.54
2019-05-09T14:05:47.942Z,15.47
2019-05-09T14:08:18.820Z,15.48
2019-05-09T14:10:49.468Z,15.48
2019-05-09T14:13:23.367Z,15.56
2019-05-09T14:15:57.647Z,15.43
2019-05-09T14:18:31.399Z,15.31
2019-05-09T14:21:07.767Z,15.33
2019-05-09T14:24:14.077Z,15.29
2019-05-09T14:26:35.168Z,15.26
2019-05-09T14:29:05.809Z,15.26
2019-05-09T14:31:55.910Z,15.23
2019-05-09T14:34:26.478Z,15.22
2019-05-09T14:37:02.885Z,15.26
2019-05-09T14:39:34.481Z,15.23
2019-05-09T14:42:05.191Z,15.29
2019-05-09T14:44:37.713Z,15.27
2019-05-09T14:47:08.539Z,15.25
2019-05-09T14:49:44.000Z,15.32
2019-05-09T14:52:13.380Z,15.37
2019-05-09T14:54:44.084Z,15.40
2019-05-09T14:57:22.891Z,15.68
2019-05-09T14:59:58.447Z,15.70
2019-05-09T15:02:29.384Z,15.71
2019-05-09T15:05:02.611Z,15.69
2019-05-09T15:07:33.968Z,15.77
2019-05-09T15:10:05.416Z,15.74
2019-05-09T15:12:42.020Z,15.83
2019-05-09T15:15:12.639Z,15.87
2019-05-09T15:17:43.315Z,15.82
2019-05-09T15:20:18.036Z,15.84
2019-05-09T15:23:02.709Z,15.88
2019-05-09T15:25:38.939Z,15.87
2019-05-09T15:28:11.651Z,15.90
2019-05-09T15:30:48.703Z,15.92
2019-05-09T15:33:18.228Z,15.91
2019-05-09T15:35:59.568Z,15.97
2019-05-09T15:38:30.255Z,16.04
2019-05-09T15:41:01.019Z,16.07
2019-05-09T15:43:44.807Z,16.16
2019-05-09T15:46:18.691Z,16.23
2019-05-09T15:48:58.629Z,16.28
2019-05-09T15:51:32.143Z,16.32
2019-05-09T15:54:04.034Z,16.38
2019-05-09T15:56:34.799Z,16.40
2019-05-09T15:59:18.180Z,16.48
2019-05-09T16:01:50.769Z,16.47
2019-05-09T16:04:21.637Z,16.32
2019-05-09T16:06:57.563Z,16.27
2019-05-09T16:09:28.687Z,16.25
2019-05-09T16:11:59.365Z,16.22
2019-05-09T16:14:29.995Z,16.31
2019-05-09T16:17:07.948Z,16.31
2019-05-09T16:19:40.678Z,16.28
2019-05-09T16:22:11.341Z,16.29
2019-05-09T16:24:42.020Z,16.27
2019-05-09T16:27:20.661Z,16.35
2019-05-09T16:29:53.538Z,16.27
2019-05-09T16:32:37.483Z,16.26
2019-05-09T16:35:10.848Z,16.23
2019-05-09T16:37:58.391Z,16.23
2019-05-09T16:40:13.696Z,16.16
2019-05-09T16:42:47.547Z,16.08
2019-05-09T16:45:18.338Z,16.06
2019-05-09T16:47:57.515Z,15.99
2019-05-09T16:50:28.239Z,15.91
2019-05-09T16:52:58.917Z,15.79
2019-05-09T16:55:43.790Z,15.75
2019-05-09T16:58:20.164Z,15.82
2019-05-09T17:00:52.648Z,15.81
2019-05-09T17:03:23.311Z,15.79
2019-05-09T17:05:53.998Z,15.66
2019-05-09T17:08:24.658Z,15.66
2019-05-09T17:11:09.396Z,15.53
2019-05-09T17:13:42.104Z,15.58
2019-05-09T17:16:12.798Z,15.65
2019-05-09T17:18:49.955Z,15.67
2019-05-09T17:21:28.225Z,15.69
2019-05-09T17:24:01.639Z,15.62
2019-05-09T17:26:32.274Z,15.55
2019-05-09T17:29:05.142Z,15.55
2019-05-09T17:31:38.378Z,15.57
2019-05-09T17:34:09.797Z,15.47
2019-05-09T17:36:40.651Z,15.57
2019-05-09T17:39:11.253Z,15.43
2019-05-09T17:41:41.960Z,15.48
2019-05-09T17:44:20.023Z,15.40
2019-05-09T17:46:57.759Z,15.28
2019-05-09T17:49:28.161Z,15.09
2019-05-09T17:51:58.877Z,15.01
2019-05-09T17:54:29.571Z,14.92
2019-05-09T17:57:00.350Z,14.88
2019-05-09T17:59:35.036Z,14.64
2019-05-09T18:02:05.847Z,14.65
2019-05-09T18:04:37.954Z,14.58
2019-05-09T18:07:10.696Z,14.55
2019-05-09T18:09:44.419Z,14.53
2019-05-09T18:12:15.168Z,14.48
2019-05-09T18:14:51.958Z,14.43
2019-05-09T18:17:22.562Z,14.39
2019-05-09T18:20:08.052Z,14.39
2019-05-09T18:22:39.989Z,14.32
2019-05-09T18:25:25.861Z,14.25
2019-05-09T18:27:58.892Z,14.25
2019-05-09T18:30:30.015Z,14.23
2019-05-09T18:33:02.592Z,14.19
2019-05-09T18:35:40.223Z,14.12
2019-05-09T18:38:17.425Z,14.11
2019-05-09T18:40:48.285Z,14.04
2019-05-09T18:43:18.989Z,13.98
2019-05-09T18:45:54.614Z,14.01
2019-05-09T18:48:27.783Z,13.94
2019-05-09T18:50:58.635Z,13.91
2019-05-09T18:53:34.214Z,13.86
2019-05-09T18:56:04.799Z,13.85
2019-05-09T18:58:38.481Z,13.82
2019-05-09T19:01:17.256Z,13.88
2019-05-09T19:03:48.022Z,13.70
2019-05-09T19:06:21.892Z,13.61
2019-05-09T19:08:54.857Z,13.40
2019-05-09T19:11:32.651Z,13.15
2019-05-09T19:14:04.955Z,12.83
2019-05-09T19:16:43.111Z,12.82
2019-05-09T19:19:15.352Z,12.57
2019-05-09T19:21:47.676Z,12.59
2019-05-09T19:24:18.532Z,12.42
2019-05-09T19:26:57.228Z,12.24
2019-05-09T19:29:34.609Z,12.25
2019-05-09T19:32:12.045Z,12.15
2019-05-09T19:34:45.050Z,11.96
2019-05-09T19:37:16.227Z,12.00
2019-05-09T19:39:46.884Z,12.05
2019-05-09T19:42:17.519Z,11.81
2019-05-09T19:44:53.895Z,11.80
2019-05-09T19:47:24.654Z,11.70
2019-05-09T19:50:00.796Z,11.72
2019-05-09T19:52:38.260Z,11.60
2019-05-09T19:55:03.843Z,11.69
2019-05-09T19:57:38.691Z,11.73
2019-05-09T20:00:12.638Z,11.78
2019-05-09T20:03:05.274Z,11.86
2019-05-09T20:05:36.071Z,11.81
2019-05-09T20:08:23.530Z,11.77
2019-05-09T20:11:07.884Z,11.86
2019-05-09T20:13:42.168Z,11.93
2019-05-09T20:16:12.849Z,11.90
2019-05-09T20:18:43.503Z,11.97
2019-05-09T20:21:15.225Z,11.91
2019-05-09T20:23:52.178Z,11.96
2019-05-09T20:26:26.695Z,11.96
2019-05-09T20:28:57.365Z,11.94
2019-05-09T20:31:29.170Z,11.78
2019-05-09T20:33:59.771Z,11.83
2019-05-09T20:36:42.011Z,11.77
2019-05-09T20:39:19.956Z,11.88
2019-05-09T20:41:57.630Z,11.88
2019-05-09T20:44:32.710Z,11.86
2019-05-09T20:47:03.738Z,11.84
2019-05-09T20:49:34.824Z,11.88
2019-05-09T20:52:06.853Z,11.84
2019-05-09T20:54:37.647Z,11.80
2019-05-09T20:57:11.795Z,11.85
2019-05-09T20:59:42.705Z,11.90
2019-05-09T21:02:25.925Z,11.89
2019-05-09T21:05:09.122Z,11.88
2019-05-09T21:07:41.089Z,11.90
2019-05-09T21:10:12.091Z,11.91
2019-05-09T21:12:49.650Z,11.97
2019-05-09T21:15:20.494Z,11.73
2019-05-09T21:17:51.452Z,11.88
2019-05-09T21:20:22.333Z,11.75
2019-05-09T21:22:53.259Z,11.81
2019-05-09T21:25:24.241Z,11.83
2019-05-09T21:27:56.050Z,11.86
2019-05-09T21:30:27.211Z,11.87
2019-05-09T21:33:06.296Z,11.87
2019-05-09T21:35:52.194Z,11.83
2019-05-09T21:38:24.128Z,11.87
2019-05-09T21:40:54.718Z,11.76
2019-05-09T21:43:26.635Z,11.71
2019-05-09T21:45:58.978Z,11.65
2019-05-09T21:48:38.497Z,11.75
2019-05-09T21:51:09.082Z,11.78
2019-05-09T21:53:55.681Z,11.78
2019-05-09T21:56:27.932Z,11.84
2019-05-09T21:58:59.528Z,11.84
2019-05-09T22:01:32.227Z,11.86
2019-05-09T22:04:08.398Z,11.83
2019-05-09T22:06:40.335Z,11.73
2019-05-09T22:09:11.461Z,11.77
2019-05-09T22:11:47.042Z,11.72
2019-05-09T22:14:18.141Z,11.69
2019-05-09T22:16:49.341Z,11.68
2019-05-09T22:19:31.298Z,11.63
2019-05-09T22:22:06.959Z,11.60
2019-05-09T22:24:38.959Z,11.64
2019-05-09T22:27:09.969Z,11.64
2019-05-09T22:29:40.739Z,11.61
2019-05-09T22:32:13.489Z,11.56
2019-05-09T22:34:50.332Z,11.50
2019-05-09T22:37:21.254Z,11.55
2019-05-09T22:39:53.987Z,11.46
2019-05-09T22:42:24.645Z,11.59
2019-05-09T22:44:55.228Z,11.56
2019-05-09T22:47:25.985Z,11.69
2019-05-09T22:49:56.705Z,11.70
2019-05-09T22:52:27.328Z,11.71
2019-05-09T22:54:57.930Z,11.66
2019-05-09T22:57:28.515Z,11.65
2019-05-09T22:59:59.157Z,11.54
2019-05-09T23:02:29.786Z,11.50
2019-05-09T23:05:00.582Z,11.53
2019-05-09T23:07:32.295Z,11.56
2019-05-09T23:10:03.017Z,11.47
2019-05-09T23:12:38.626Z,11.46
2019-05-09T23:15:11.050Z,11.47
2019-05-09T23:17:41.620Z,11.43
2019-05-09T23:20:30.021Z,11.45
2019-05-09T23:23:02.252Z,11.40
2019-05-09T23:25:32.819Z,11.33
2019-05-09T23:28:04.069Z,11.38
2019-05-09T23:30:40.796Z,11.34
2019-05-09T23:33:12.508Z,11.43
2019-05-09T23:35:43.074Z,11.27
2019-05-09T23:38:23.384Z,11.33
2019-05-09T23:40:54.075Z,11.37
2019-05-09T23:43:24.666Z,11.30
2019-05-09T23:45:55.354Z,11.27
2019-05-09T23:48:25.945Z,11.24
2019-05-09T23:50:56.524Z,11.28
2019-05-09T23:53:32.973Z,11.35
2019-05-09T23:56:33.819Z,11.38
2019-05-09T23:59:22.557Z,11.36
